Share

Ko Samui, Thailand

2:30 PM ICT on April 24, 2014 (GMT +0700)
Samui (VTSM) Elev 66 ft | 9.55 °N, 100.06 °E | Change Station

Current weather conditions updated 30 minutes ago

Mostly Cloudy
Mostly Cloudy
93 °F
Feels Like 110 °F
N
15
Wind Variable Wind from SSE
Sunrise 6:05 AM
Sunset 6:30 PM
Moon Waning Crescent

Today is forecast to be nearly the same temperature as yesterday.

Pressure 29.80 in
Visibility 5.0 miles
Clouds Few 2000 ft
Mostly Cloudy 30000 ft
Heat Index 110 °F
Dew Point 79 °F
Humidity 63%
Rainfall 0.00 in
Snow Depth Not available.
UV 7 out of 16
Pollen Not available.
Air Quality Not available.
Flu Activity Not available.
METAR VTSM 240700Z 15013KT 8000 FEW020 BKN300 34/26 Q1009 A2981

More Conditions Fewer Conditions

Pressure 29.80 in
Visibility 5.0 miles
Clouds Few 2000 ft
Mostly Cloudy 30000 ft
Heat Index 110 °F
Dew Point 79 °F
Humidity 63%
Rainfall 0.00 in
Snow Depth Not available.
UV 7 out of 16
Pollen Not available.
Air Quality Not available.
Flu Activity Not available.
METAR VTSM 240700Z 15013KT 8000 FEW020 BKN300 34/26 Q1009 A2981

More Conditions Fewer Conditions

10-Day Weather Forecast

Almanac

Astronomy

Apr. 24, 2014 Rise Set
Actual Time 6:05 AM ICT 6:30 PM ICT
Civil Twilight 5:44 AM ICT 6:51 PM ICT
Nautical Twilight 5:19 AM ICT 7:16 PM ICT
Astronomical Twilight 4:53 AM ICT 7:42 PM ICT
Moon 1:54 AM ICT 2:07 PM ICT
Length of Visible Light 13h 07m
Length of Day
12h 24m
Tomorrow will be 0m 29s longer.
Waning Crescent, 28% of the Moon is Illuminated
Today
Waning Crescent
Apr 29
New
May 6
First Quarter
May 14
Full
May 21
Last Quarter

Yesterday's Extremes

Country Highs Country Lows

Community

  • Stacked
    Stacked
  • clouds approaching Red Sox Nation
    clouds approaching Red Sox Nation
  • Balance
    Balance
  • Nestled In
    Nestled In
  • Stunning Sunrise
    Stunning Sunrise

WunderPhotos

Upload Photos

1,704,571 photos uploaded!

WunderBlogs® & News

Nearby

Snow Depth

Not available.

Coastal Water Temperatures

Place Temperature
No Stations Reporting

Earthquake Activity

City Distance Mag. Time & Date
No recent earthquake activity has been reported nearby.
Minimum magnitude displayed is 2.5.

Nearby Weather Stations

There are no personal weather stations in this area.

What do you think?

We're not finished. Please let us know what you like, what you don't like, and what you are still missing.